Terminal Aerodrome Forecast
Issued by NWS

Home | Current Version | Previous Version | Text Only | Print | Product List | Glossary Off
Versions: 1 2 3 4 5 6 7 8 9 10 11

096
FTUS41 KCLE 210252 AAB
TAFFDY
TAF AMD
KFDY 210252Z 2103/2124 24012KT P6SM FEW025 SCT050
     FM210900 27012G20KT P6SM OVC025
     FM211900 30012G20KT P6SM OVC025=

USA.gov is the U.S. government's official web portal to all federal, state and local government web resources and services.